YNTM weather

Northam Airport
Western Australia, Australia

Public forecast

Using degrees Celsius for public forecast. Weather courtesy of forecast.io.

METAR (pilot weather report)

Closest report is RAAF Base Pearce, 34.2 nm (63.4 km) W. Retrieved 2019/04/26 16:30 UTC (0 seconds ago):

YPEA 261630Z AUTO 31001KT 9999 // NCD 20/06 Q1024

TAF (pilot weather forecast)

Closest forecast is RAAF Base Pearce, 34.2 nm (63.4 km) W. Retrieved 2019/04/26 12:00 UTC (4 hours ago):

TAF YPEA 261004Z 2612/2706 09008KT CAVOK FM261500 06012G22KT CAVOK FM270400 03010KT CAVOK